sensor_id;sensor_type;location;lat;lon;timestamp;pressure;altitude;pressure_sealevel;temperature;humidity
73679;BME280;61978;52.742;16.962;2022-09-06T00:01:14;101701.48;;;11.98;100.00
73679;BME280;61978;52.742;16.962;2022-09-06T00:03:43;101704.86;;;11.96;100.00
73679;BME280;61978;52.742;16.962;2022-09-06T00:06:15;101719.83;;;11.95;100.00
73679;BME280;61978;52.742;16.962;2022-09-06T00:08:46;101736.17;;;11.89;100.00
73679;BME280;61978;52.742;16.962;2022-09-06T00:11:13;101740.89;;;11.83;100.00
73679;BME280;61978;52.742;16.962;2022-09-06T00:13:41;101739.23;;;11.78;100.00
73679;BME280;61978;52.742;16.962;2022-09-06T00:16:12;101743.77;;;11.74;100.00
73679;BME280;61978;52.742;16.962;2022-09-06T00:18:40;101751.33;;;11.70;100.00
73679;BME280;61978;52.742;16.962;2022-09-06T00:21:20;101754.71;;;11.72;100.00
73679;BME280;61978;52.742;16.962;2022-09-06T00:23:46;101760.75;;;11.70;100.00
73679;BME280;61978;52.742;16.962;2022-09-06T00:26:14;101768.48;;;11.69;100.00
73679;BME280;61978;52.742;16.962;2022-09-06T00:28:41;101775.20;;;11.65;100.00
73679;BME280;61978;52.742;16.962;2022-09-06T00:31:13;101779.26;;;11.61;100.00
73679;BME280;61978;52.742;16.962;2022-09-06T00:33:40;101790.36;;;11.58;100.00
73679;BME280;61978;52.742;16.962;2022-09-06T00:36:08;101800.78;;;11.49;100.00
73679;BME280;61978;52.742;16.962;2022-09-06T00:38:36;101804.79;;;11.41;100.00
73679;BME280;61978;52.742;16.962;2022-09-06T00:41:06;101809.17;;;11.34;100.00
73679;BME280;61978;52.742;16.962;2022-09-06T00:43:33;101817.91;;;11.28;100.00
73679;BME280;61978;52.742;16.962;2022-09-06T00:46:01;101818.56;;;11.22;100.00
73679;BME280;61978;52.742;16.962;2022-09-06T00:48:28;101822.59;;;11.22;100.00
73679;BME280;61978;52.742;16.962;2022-09-06T00:50:58;101834.67;;;11.09;100.00
73679;BME280;61978;52.742;16.962;2022-09-06T00:53:25;101841.85;;;10.97;100.00
73679;BME280;61978;52.742;16.962;2022-09-06T00:55:53;101842.83;;;10.88;100.00
73679;BME280;61978;52.742;16.962;2022-09-06T00:58:20;101840.59;;;10.75;100.00
73679;BME280;61978;52.742;16.962;2022-09-06T01:00:46;101851.16;;;10.69;100.00
73679;BME280;61978;52.742;16.962;2022-09-06T01:03:13;101861.36;;;10.61;100.00
73679;BME280;61978;52.742;16.962;2022-09-06T01:05:59;101864.51;;;10.52;100.00
73679;BME280;61978;52.742;16.962;2022-09-06T01:08:38;101860.66;;;10.51;100.00
73679;BME280;61978;52.742;16.962;2022-09-06T01:11:12;101860.16;;;10.55;100.00
73679;BME280;61978;52.742;16.962;2022-09-06T01:16:42;101869.14;;;10.42;100.00
73679;BME280;61978;52.742;16.962;2022-09-06T01:22:13;101869.91;;;10.31;100.00
73679;BME280;61978;52.742;16.962;2022-09-06T01:30:24;101876.66;;;10.35;100.00
73679;BME280;61978;52.742;16.962;2022-09-06T01:32:55;101884.18;;;10.27;100.00
73679;BME280;61978;52.742;16.962;2022-09-06T01:35:54;101874.57;;;10.25;100.00
73679;BME280;61978;52.742;16.962;2022-09-06T01:38:18;101886.29;;;10.20;100.00
73679;BME280;61978;52.742;16.962;2022-09-06T01:40:45;101887.95;;;10.17;100.00
73679;BME280;61978;52.742;16.962;2022-09-06T01:43:13;101883.25;;;10.15;100.00
73679;BME280;61978;52.742;16.962;2022-09-06T01:48:42;101895.25;;;10.11;100.00
73679;BME280;61978;52.742;16.962;2022-09-06T01:53:59;101899.28;;;10.11;100.00
73679;BME280;61978;52.742;16.962;2022-09-06T01:56:48;101900.44;;;10.08;100.00
73679;BME280;61978;52.742;16.962;2022-09-06T01:59:32;101910.63;;;10.00;100.00
73679;BME280;61978;52.742;16.962;2022-09-06T02:02:06;101912.59;;;9.98;100.00
73679;BME280;61978;52.742;16.962;2022-09-06T02:04:43;101906.24;;;9.99;100.00
73679;BME280;61978;52.742;16.962;2022-09-06T02:07:21;101907.23;;;9.98;100.00
73679;BME280;61978;52.742;16.962;2022-09-06T02:10:00;101900.20;;;9.97;100.00
73679;BME280;61978;52.742;16.962;2022-09-06T02:12:29;101904.91;;;9.99;100.00
73679;BME280;61978;52.742;16.962;2022-09-06T02:15:10;101896.17;;;9.97;100.00
73679;BME280;61978;52.742;16.962;2022-09-06T02:17:42;101907.72;;;9.98;100.00
73679;BME280;61978;52.742;16.962;2022-09-06T02:20:13;101906.59;;;10.00;100.00
73679;BME280;61978;52.742;16.962;2022-09-06T02:22:43;101910.58;;;9.96;100.00
73679;BME280;61978;52.742;16.962;2022-09-06T02:25:16;101907.84;;;9.88;100.00
73679;BME280;61978;52.742;16.962;2022-09-06T02:27:41;101910.66;;;9.87;100.00
73679;BME280;61978;52.742;16.962;2022-09-06T02:30:09;101905.41;;;9.81;100.00
73679;BME280;61978;52.742;16.962;2022-09-06T02:32:41;101905.53;;;9.76;100.00
73679;BME280;61978;52.742;16.962;2022-09-06T02:35:13;101903.52;;;9.74;100.00
73679;BME280;61978;52.742;16.962;2022-09-06T02:37:41;101898.16;;;9.78;100.00
73679;BME280;61978;52.742;16.962;2022-09-06T02:40:10;101899.56;;;9.86;100.00
73679;BME280;61978;52.742;16.962;2022-09-06T02:42:37;101890.58;;;9.91;100.00
73679;BME280;61978;52.742;16.962;2022-09-06T02:45:07;101894.44;;;9.92;100.00
73679;BME280;61978;52.742;16.962;2022-09-06T02:47:35;101896.62;;;9.93;100.00
73679;BME280;61978;52.742;16.962;2022-09-06T02:50:03;101902.66;;;9.95;100.00
73679;BME280;61978;52.742;16.962;2022-09-06T02:52:29;101891.11;;;9.94;100.00
73679;BME280;61978;52.742;16.962;2022-09-06T02:54:56;101882.05;;;9.95;100.00
73679;BME280;61978;52.742;16.962;2022-09-06T02:57:25;101884.91;;;9.98;100.00
73679;BME280;61978;52.742;16.962;2022-09-06T02:59:51;101890.19;;;10.03;100.00
73679;BME280;61978;52.742;16.962;2022-09-06T03:02:18;101876.11;;;10.10;100.00
73679;BME280;61978;52.742;16.962;2022-09-06T03:04:44;101876.11;;;10.10;100.00
73679;BME280;61978;52.742;16.962;2022-09-06T03:07:11;101875.78;;;10.09;100.00
73679;BME280;61978;52.742;16.962;2022-09-06T03:09:38;101872.74;;;10.08;100.00
73679;BME280;61978;52.742;16.962;2022-09-06T03:12:06;101867.87;;;10.07;100.00
73679;BME280;61978;52.742;16.962;2022-09-06T03:14:33;101867.05;;;10.07;100.00
73679;BME280;61978;52.742;16.962;2022-09-06T03:17:02;101868.36;;;10.02;100.00
73679;BME280;61978;52.742;16.962;2022-09-06T03:19:30;101859.41;;;9.94;100.00
73679;BME280;61978;52.742;16.962;2022-09-06T03:22:00;101864.19;;;9.86;100.00
73679;BME280;61978;52.742;16.962;2022-09-06T03:24:28;101854.08;;;9.80;100.00
73679;BME280;61978;52.742;16.962;2022-09-06T03:26:55;101855.36;;;9.72;100.00
73679;BME280;61978;52.742;16.962;2022-09-06T03:29:23;101865.18;;;9.64;100.00
73679;BME280;61978;52.742;16.962;2022-09-06T03:31:50;101856.95;;;9.61;100.00
73679;BME280;61978;52.742;16.962;2022-09-06T03:34:18;101849.52;;;9.55;100.00
73679;BME280;61978;52.742;16.962;2022-09-06T03:36:45;101834.77;;;9.55;100.00
73679;BME280;61978;52.742;16.962;2022-09-06T03:39:11;101828.43;;;9.60;100.00
73679;BME280;61978;52.742;16.962;2022-09-06T03:41:38;101831.48;;;9.65;100.00
73679;BME280;61978;52.742;16.962;2022-09-06T03:44:05;101822.14;;;9.69;100.00
73679;BME280;61978;52.742;16.962;2022-09-06T03:46:32;101824.50;;;9.72;100.00
73679;BME280;61978;52.742;16.962;2022-09-06T03:48:59;101820.34;;;9.74;100.00
73679;BME280;61978;52.742;16.962;2022-09-06T03:51:27;101815.80;;;9.74;100.00
73679;BME280;61978;52.742;16.962;2022-09-06T03:53:55;101817.13;;;9.70;100.00
73679;BME280;61978;52.742;16.962;2022-09-06T03:56:22;101815.06;;;9.64;100.00
73679;BME280;61978;52.742;16.962;2022-09-06T03:58:49;101805.63;;;9.60;100.00
73679;BME280;61978;52.742;16.962;2022-09-06T04:01:16;101807.59;;;9.54;100.00
73679;BME280;61978;52.742;16.962;2022-09-06T04:03:42;101811.20;;;9.45;100.00
73679;BME280;61978;52.742;16.962;2022-09-06T04:06:09;101813.81;;;9.37;100.00
73679;BME280;61978;52.742;16.962;2022-09-06T04:08:38;101804.23;;;9.34;100.00
73679;BME280;61978;52.742;16.962;2022-09-06T04:11:08;101809.91;;;9.31;100.00
73679;BME280;61978;52.742;16.962;2022-09-06T04:13:39;101812.71;;;9.26;100.00
73679;BME280;61978;52.742;16.962;2022-09-06T04:16:07;101812.22;;;9.26;100.00
73679;BME280;61978;52.742;16.962;2022-09-06T04:18:36;101811.50;;;9.24;100.00
73679;BME280;61978;52.742;16.962;2022-09-06T04:21:04;101814.90;;;9.26;100.00
73679;BME280;61978;52.742;16.962;2022-09-06T04:23:34;101814.05;;;9.26;100.00
73679;BME280;61978;52.742;16.962;2022-09-06T04:26:04;101818.26;;;9.28;100.00
73679;BME280;61978;52.742;16.962;2022-09-06T04:28:31;101817.36;;;9.24;100.00
73679;BME280;61978;52.742;16.962;2022-09-06T04:31:01;101815.03;;;9.25;100.00
73679;BME280;61978;52.742;16.962;2022-09-06T04:33:33;101811.37;;;9.26;100.00
73679;BME280;61978;52.742;16.962;2022-09-06T04:36:06;101804.98;;;9.27;100.00
73679;BME280;61978;52.742;16.962;2022-09-06T04:38:38;101804.05;;;9.32;100.00
73679;BME280;61978;52.742;16.962;2022-09-06T04:41:08;101809.84;;;9.41;100.00
73679;BME280;61978;52.742;16.962;2022-09-06T04:43:38;101811.36;;;9.43;100.00
73679;BME280;61978;52.742;16.962;2022-09-06T04:48:42;101815.68;;;9.58;100.00
73679;BME280;61978;52.742;16.962;2022-09-06T04:51:09;101807.64;;;9.62;100.00
73679;BME280;61978;52.742;16.962;2022-09-06T04:53:37;101800.67;;;9.69;100.00
73679;BME280;61978;52.742;16.962;2022-09-06T04:56:05;101787.13;;;9.75;100.00
73679;BME280;61978;52.742;16.962;2022-09-06T04:58:34;101780.19;;;9.90;100.00
73679;BME280;61978;52.742;16.962;2022-09-06T05:01:01;101782.42;;;9.98;100.00
73679;BME280;61978;52.742;16.962;2022-09-06T05:03:27;101775.08;;;10.04;100.00
73679;BME280;61978;52.742;16.962;2022-09-06T05:06:08;101776.00;;;10.13;100.00
73679;BME280;61978;52.742;16.962;2022-09-06T05:08:39;101765.33;;;10.21;100.00
73679;BME280;61978;52.742;16.962;2022-09-06T05:11:08;101759.81;;;10.27;100.00
73679;BME280;61978;52.742;16.962;2022-09-06T05:13:36;101755.31;;;10.35;100.00
73679;BME280;61978;52.742;16.962;2022-09-06T05:16:07;101760.19;;;10.40;100.00
73679;BME280;61978;52.742;16.962;2022-09-06T05:18:36;101758.05;;;10.47;100.00
73679;BME280;61978;52.742;16.962;2022-09-06T05:21:04;101752.88;;;10.58;100.00
73679;BME280;61978;52.742;16.962;2022-09-06T05:23:32;101761.45;;;10.62;100.00
73679;BME280;61978;52.742;16.962;2022-09-06T05:26:01;101753.27;;;10.71;100.00
73679;BME280;61978;52.742;16.962;2022-09-06T05:28:28;101755.30;;;10.77;100.00
73679;BME280;61978;52.742;16.962;2022-09-06T05:31:09;101745.92;;;10.89;100.00
73679;BME280;61978;52.742;16.962;2022-09-06T05:33:37;101748.96;;;10.98;100.00
73679;BME280;61978;52.742;16.962;2022-09-06T05:36:06;101739.20;;;11.05;100.00
73679;BME280;61978;52.742;16.962;2022-09-06T05:38:33;101745.59;;;11.16;100.00
73679;BME280;61978;52.742;16.962;2022-09-06T05:41:01;101732.35;;;11.31;100.00
73679;BME280;61978;52.742;16.962;2022-09-06T05:43:28;101728.95;;;11.65;100.00
73679;BME280;61978;52.742;16.962;2022-09-06T05:45:57;101712.28;;;12.33;100.00
73679;BME280;61978;52.742;16.962;2022-09-06T05:48:24;101687.39;;;13.07;100.00
73679;BME280;61978;52.742;16.962;2022-09-06T05:51:08;101666.19;;;13.75;100.00
73679;BME280;61978;52.742;16.962;2022-09-06T05:53:39;101658.63;;;14.14;100.00
73679;BME280;61978;52.742;16.962;2022-09-06T05:56:08;101660.11;;;14.46;100.00
73679;BME280;61978;52.742;16.962;2022-09-06T05:58:37;101663.84;;;14.56;100.00
73679;BME280;61978;52.742;16.962;2022-09-06T06:03:52;101681.31;;;14.74;100.00
73679;BME280;61978;52.742;16.962;2022-09-06T06:06:21;101658.89;;;15.12;100.00
73679;BME280;61978;52.742;16.962;2022-09-06T06:08:50;101663.89;;;15.36;100.00
73679;BME280;61978;52.742;16.962;2022-09-06T06:11:18;101670.83;;;15.45;100.00
73679;BME280;61978;52.742;16.962;2022-09-06T06:13:47;101677.42;;;15.36;100.00
73679;BME280;61978;52.742;16.962;2022-09-06T06:16:17;101661.16;;;15.58;100.00
73679;BME280;61978;52.742;16.962;2022-09-06T06:18:44;101660.44;;;15.77;100.00
73679;BME280;61978;52.742;16.962;2022-09-06T06:21:22;101677.86;;;15.61;100.00
73679;BME280;61978;52.742;16.962;2022-09-06T06:23:59;101673.41;;;15.64;100.00
73679;BME280;61978;52.742;16.962;2022-09-06T06:26:32;101667.02;;;15.95;100.00
73679;BME280;61978;52.742;16.962;2022-09-06T06:29:03;101669.22;;;15.96;100.00
73679;BME280;61978;52.742;16.962;2022-09-06T06:31:33;101683.84;;;15.84;100.00
73679;BME280;61978;52.742;16.962;2022-09-06T06:34:02;101676.67;;;15.87;100.00
73679;BME280;61978;52.742;16.962;2022-09-06T06:36:32;101665.66;;;15.95;100.00
73679;BME280;61978;52.742;16.962;2022-09-06T06:39:03;101673.05;;;15.91;100.00
73679;BME280;61978;52.742;16.962;2022-09-06T06:41:33;101660.52;;;16.24;100.00
73679;BME280;61978;52.742;16.962;2022-09-06T06:44:04;101656.53;;;16.50;100.00
73679;BME280;61978;52.742;16.962;2022-09-06T06:46:34;101653.38;;;16.71;100.00
73679;BME280;61978;52.742;16.962;2022-09-06T06:49:04;101650.17;;;16.91;100.00
73679;BME280;61978;52.742;16.962;2022-09-06T06:51:32;101653.33;;;17.01;100.00
73679;BME280;61978;52.742;16.962;2022-09-06T06:54:02;101692.23;;;16.37;100.00
73679;BME280;61978;52.742;16.962;2022-09-06T06:56:36;101667.69;;;16.21;100.00
73679;BME280;61978;52.742;16.962;2022-09-06T06:59:04;101690.63;;;16.25;100.00
73679;BME280;61978;52.742;16.962;2022-09-06T07:01:35;101642.53;;;16.71;100.00
73679;BME280;61978;52.742;16.962;2022-09-06T07:04:02;101640.89;;;17.02;100.00
73679;BME280;61978;52.742;16.962;2022-09-06T07:06:30;101632.03;;;17.24;100.00
73679;BME280;61978;52.742;16.962;2022-09-06T07:08:58;101634.84;;;17.40;100.00
73679;BME280;61978;52.742;16.962;2022-09-06T07:11:27;101654.17;;;17.21;100.00
73679;BME280;61978;52.742;16.962;2022-09-06T07:13:55;101636.52;;;17.60;100.00
73679;BME280;61978;52.742;16.962;2022-09-06T07:16:22;101633.31;;;17.90;100.00
73679;BME280;61978;52.742;16.962;2022-09-06T07:18:54;101627.38;;;18.06;100.00
73679;BME280;61978;52.742;16.962;2022-09-06T07:21:23;101662.00;;;17.66;100.00
73679;BME280;61978;52.742;16.962;2022-09-06T07:23:55;101662.39;;;17.43;100.00
73679;BME280;61978;52.742;16.962;2022-09-06T07:26:28;101657.90;;;17.53;100.00
73679;BME280;61978;52.742;16.962;2022-09-06T07:28:59;101642.39;;;17.93;100.00
73679;BME280;61978;52.742;16.962;2022-09-06T07:31:27;101653.34;;;18.02;100.00
73679;BME280;61978;52.742;16.962;2022-09-06T07:33:54;101660.14;;;18.02;100.00
73679;BME280;61978;52.742;16.962;2022-09-06T07:36:24;101645.02;;;18.19;100.00
73679;BME280;61978;52.742;16.962;2022-09-06T07:38:51;101650.88;;;18.16;100.00
73679;BME280;61978;52.742;16.962;2022-09-06T07:41:18;101665.50;;;17.93;100.00
73679;BME280;61978;52.742;16.962;2022-09-06T07:43:44;101673.20;;;17.60;100.00
73679;BME280;61978;52.742;16.962;2022-09-06T07:46:15;101670.58;;;17.56;100.00
73679;BME280;61978;52.742;16.962;2022-09-06T07:48:45;101680.18;;;17.46;100.00
73679;BME280;61978;52.742;16.962;2022-09-06T07:51:20;101654.98;;;17.61;100.00
73679;BME280;61978;52.742;16.962;2022-09-06T07:53:52;101636.45;;;17.87;100.00
73679;BME280;61978;52.742;16.962;2022-09-06T07:56:22;101656.47;;;17.63;100.00
73679;BME280;61978;52.742;16.962;2022-09-06T07:58:50;101632.48;;;17.83;100.00
73679;BME280;61978;52.742;16.962;2022-09-06T08:01:29;101651.73;;;17.74;100.00
73679;BME280;61978;52.742;16.962;2022-09-06T08:03:58;101655.07;;;17.76;100.00
73679;BME280;61978;52.742;16.962;2022-09-06T08:06:31;101631.02;;;17.87;100.00
73679;BME280;61978;52.742;16.962;2022-09-06T08:09:01;101621.52;;;18.09;100.00
73679;BME280;61978;52.742;16.962;2022-09-06T08:11:30;101626.09;;;18.15;100.00
73679;BME280;61978;52.742;16.962;2022-09-06T08:14:02;101614.73;;;18.31;100.00
73679;BME280;61978;52.742;16.962;2022-09-06T08:16:33;101615.34;;;18.33;100.00
73679;BME280;61978;52.742;16.962;2022-09-06T08:19:02;101612.99;;;18.43;100.00
73679;BME280;61978;52.742;16.962;2022-09-06T08:21:31;101612.56;;;18.46;100.00
73679;BME280;61978;52.742;16.962;2022-09-06T08:23:59;101603.41;;;18.56;100.00
73679;BME280;61978;52.742;16.962;2022-09-06T08:26:27;101599.52;;;18.61;100.00
73679;BME280;61978;52.742;16.962;2022-09-06T08:29:00;101580.77;;;18.78;100.00
73679;BME280;61978;52.742;16.962;2022-09-06T08:31:29;101556.58;;;19.13;100.00
73679;BME280;61978;52.742;16.962;2022-09-06T08:33:58;101573.21;;;19.05;100.00
73679;BME280;61978;52.742;16.962;2022-09-06T08:36:27;101583.21;;;19.11;100.00
73679;BME280;61978;52.742;16.962;2022-09-06T08:39:04;101570.45;;;19.20;100.00
73679;BME280;61978;52.742;16.962;2022-09-06T08:42:02;101564.11;;;19.26;100.00
73679;BME280;61978;52.742;16.962;2022-09-06T08:44:39;101540.78;;;19.64;99.71
73679;BME280;61978;52.742;16.962;2022-09-06T08:47:09;101555.76;;;19.46;97.42
73679;BME280;61978;52.742;16.962;2022-09-06T08:49:45;101530.91;;;19.81;96.76
73679;BME280;61978;52.742;16.962;2022-09-06T09:00:20;101495.70;;;20.19;93.95
73679;BME280;61978;52.742;16.962;2022-09-06T09:05:36;101496.05;;;20.31;90.83
73679;BME280;61978;52.742;16.962;2022-09-06T09:10:46;101481.48;;;20.49;90.30
73679;BME280;61978;52.742;16.962;2022-09-06T09:13:18;101467.75;;;20.67;88.14
73679;BME280;61978;52.742;16.962;2022-09-06T09:15:43;101463.96;;;20.91;86.90
73679;BME280;61978;52.742;16.962;2022-09-06T09:18:15;101444.08;;;21.05;85.08
73679;BME280;61978;52.742;16.962;2022-09-06T09:20:41;101440.93;;;21.22;83.37
73679;BME280;61978;52.742;16.962;2022-09-06T09:23:08;101426.27;;;21.40;83.07
73679;BME280;61978;52.742;16.962;2022-09-06T09:25:37;101433.02;;;21.49;81.14
73679;BME280;61978;52.742;16.962;2022-09-06T09:28:10;101413.53;;;21.74;80.76
73679;BME280;61978;52.742;16.962;2022-09-06T09:30:51;101424.86;;;21.66;78.71
73679;BME280;61978;52.742;16.962;2022-09-06T09:33:28;101423.63;;;21.45;77.49
73679;BME280;61978;52.742;16.962;2022-09-06T09:35:57;101423.15;;;21.48;76.43
73679;BME280;61978;52.742;16.962;2022-09-06T09:38:31;101414.46;;;21.51;76.71
73679;BME280;61978;52.742;16.962;2022-09-06T09:41:04;101378.48;;;21.85;78.80
73679;BME280;61978;52.742;16.962;2022-09-06T09:46:10;101371.22;;;21.90;75.96
73679;BME280;61978;52.742;16.962;2022-09-06T09:48:38;101356.71;;;22.06;73.79
73679;BME280;61978;52.742;16.962;2022-09-06T09:53:58;101367.64;;;22.21;68.42
73679;BME280;61978;52.742;16.962;2022-09-06T10:01:48;101344.72;;;22.43;64.89
73679;BME280;61978;52.742;16.962;2022-09-06T10:04:21;101309.92;;;22.60;66.94
73679;BME280;61978;52.742;16.962;2022-09-06T10:06:47;101276.73;;;22.95;66.17
73679;BME280;61978;52.742;16.962;2022-09-06T10:09:19;101299.72;;;22.94;63.33
73679;BME280;61978;52.742;16.962;2022-09-06T10:11:54;101291.39;;;22.87;63.45
73679;BME280;61978;52.742;16.962;2022-09-06T10:14:25;101251.16;;;23.14;63.83
73679;BME280;61978;52.742;16.962;2022-09-06T10:16:52;101263.98;;;23.08;63.28
73679;BME280;61978;52.742;16.962;2022-09-06T10:19:32;101234.81;;;23.21;65.20
73679;BME280;61978;52.742;16.962;2022-09-06T10:21:54;101236.74;;;23.23;63.56
73679;BME280;61978;52.742;16.962;2022-09-06T10:24:29;101251.81;;;23.23;60.21
73679;BME280;61978;52.742;16.962;2022-09-06T10:26:54;101188.88;;;23.63;63.79
73679;BME280;61978;52.742;16.962;2022-09-06T10:29:49;101203.98;;;23.68;60.92
73679;BME280;61978;52.742;16.962;2022-09-06T10:32:50;101212.61;;;23.50;60.92
73679;BME280;61978;52.742;16.962;2022-09-06T10:43:57;101180.44;;;23.72;58.63
73679;BME280;61978;52.742;16.962;2022-09-06T10:46:20;101127.31;;;23.88;60.97
73679;BME280;61978;52.742;16.962;2022-09-06T10:48:51;101140.14;;;23.75;60.10
73679;BME280;61978;52.742;16.962;2022-09-06T10:51:33;101139.45;;;23.58;58.40
73679;BME280;61978;52.742;16.962;2022-09-06T10:54:16;101128.46;;;23.53;61.37
73679;BME280;61978;52.742;16.962;2022-09-06T10:59:32;101076.75;;;23.69;58.96
73679;BME280;61978;52.742;16.962;2022-09-06T11:04:37;101097.73;;;23.48;56.36
73679;BME280;61978;52.742;16.962;2022-09-06T11:07:28;101058.16;;;23.81;57.82
73679;BME280;61978;52.742;16.962;2022-09-06T11:13:17;101054.20;;;23.62;55.34
73679;BME280;61978;52.742;16.962;2022-09-06T11:15:25;101027.64;;;23.70;56.04
73679;BME280;61978;52.742;16.962;2022-09-06T11:18:03;101010.94;;;23.74;56.74
73679;BME280;61978;52.742;16.962;2022-09-06T11:28:52;100953.48;;;24.24;54.87
73679;BME280;61978;52.742;16.962;2022-09-06T11:31:32;100927.95;;;24.26;55.21
73679;BME280;61978;52.742;16.962;2022-09-06T11:34:10;100913.14;;;24.30;54.52
73679;BME280;61978;52.742;16.962;2022-09-06T11:36:46;100901.34;;;24.37;53.20
73679;BME280;61978;52.742;16.962;2022-09-06T11:39:13;100904.06;;;24.32;53.73
73679;BME280;61978;52.742;16.962;2022-09-06T11:41:41;100914.18;;;24.09;53.84
73679;BME280;61978;52.742;16.962;2022-09-06T11:44:09;100917.68;;;23.69;54.25
73679;BME280;61978;52.742;16.962;2022-09-06T11:49:31;100851.23;;;23.47;56.54
73679;BME280;61978;52.742;16.962;2022-09-06T11:51:59;100851.23;;;23.47;56.54
73679;BME280;61978;52.742;16.962;2022-09-06T11:57:08;100812.67;;;23.96;53.63
73679;BME280;61978;52.742;16.962;2022-09-06T11:59:58;100770.13;;;24.21;54.79
73679;BME280;61978;52.742;16.962;2022-09-06T12:02:30;100779.75;;;24.19;53.64
73679;BME280;61978;52.742;16.962;2022-09-06T12:07:37;100739.91;;;24.37;53.21
73679;BME280;61978;52.742;16.962;2022-09-06T12:12:57;100758.87;;;24.00;52.80
73679;BME280;61978;52.742;16.962;2022-09-06T12:15:51;100766.28;;;23.82;53.42
73679;BME280;61978;52.742;16.962;2022-09-06T12:23:57;100648.55;;;24.08;55.28
73679;BME280;61978;52.742;16.962;2022-09-06T12:26:43;100705.41;;;23.75;53.61
73679;BME280;61978;52.742;16.962;2022-09-06T12:29:13;100690.58;;;23.76;54.32
73679;BME280;61978;52.742;16.962;2022-09-06T12:31:58;100700.75;;;23.45;54.45
73679;BME280;61978;52.742;16.962;2022-09-06T12:34:32;100643.44;;;23.69;55.09
73679;BME280;61978;52.742;16.962;2022-09-06T12:37:06;100604.64;;;24.08;54.03
73679;BME280;61978;52.742;16.962;2022-09-06T12:39:29;100589.53;;;24.21;53.79
73679;BME280;61978;52.742;16.962;2022-09-06T12:44:39;100641.48;;;23.87;52.68
73679;BME280;61978;52.742;16.962;2022-09-06T12:47:12;100635.44;;;23.93;52.87
73679;BME280;61978;52.742;16.962;2022-09-06T12:49:39;100625.88;;;23.72;53.47
73679;BME280;61978;52.742;16.962;2022-09-06T12:52:13;100533.58;;;24.09;56.27
73679;BME280;61978;52.742;16.962;2022-09-06T13:06:02;100502.65;;;23.96;52.64
73679;BME280;61978;52.742;16.962;2022-09-06T13:08:45;100505.36;;;24.01;53.92
73679;BME280;61978;52.742;16.962;2022-09-06T13:11:14;100501.25;;;24.01;53.30
73679;BME280;61978;52.742;16.962;2022-09-06T13:13:53;100465.77;;;24.22;53.44
73679;BME280;61978;52.742;16.962;2022-09-06T13:26:13;100484.47;;;24.05;52.24
73679;BME280;61978;52.742;16.962;2022-09-06T14:16:38;100308.05;;;24.07;53.46
73679;BME280;61978;52.742;16.962;2022-09-06T14:19:17;100330.34;;;23.98;52.17
73679;BME280;61978;52.742;16.962;2022-09-06T14:49:23;100273.95;;;23.41;55.44
73679;BME280;61978;52.742;16.962;2022-09-06T14:55:28;100284.67;;;23.40;54.08
73679;BME280;61978;52.742;16.962;2022-09-06T15:05:26;100298.05;;;22.72;57.66
73679;BME280;61978;52.742;16.962;2022-09-06T15:17:54;100230.73;;;22.56;58.29
73679;BME280;61978;52.742;16.962;2022-09-06T15:29:43;100198.77;;;22.39;61.38
73679;BME280;61978;52.742;16.962;2022-09-06T15:35:58;100164.77;;;22.65;59.85
73679;BME280;61978;52.742;16.962;2022-09-06T16:39:38;100102.63;;;21.16;69.51
73679;BME280;61978;52.742;16.962;2022-09-06T16:48:24;100096.55;;;20.78;71.18
73679;BME280;61978;52.742;16.962;2022-09-06T17:52:37;100073.88;;;17.27;100.00
73679;BME280;61978;52.742;16.962;2022-09-06T18:02:28;100072.69;;;17.03;100.00
73679;BME280;61978;52.742;16.962;2022-09-06T18:05:11;100093.78;;;16.85;100.00
73679;BME280;61978;52.742;16.962;2022-09-06T18:11:20;100122.94;;;16.63;100.00
73679;BME280;61978;52.742;16.962;2022-09-06T19:08:31;100402.60;;;15.09;100.00
73679;BME280;61978;52.742;16.962;2022-09-06T19:37:17;100563.71;;;15.05;100.00
73679;BME280;61978;52.742;16.962;2022-09-06T19:50:00;100608.12;;;14.60;100.00
73679;BME280;61978;52.742;16.962;2022-09-06T20:14:38;100698.09;;;14.03;100.00
73679;BME280;61978;52.742;16.962;2022-09-06T20:17:09;100699.76;;;14.04;100.00
73679;BME280;61978;52.742;16.962;2022-09-06T20:30:09;100763.22;;;13.97;100.00
73679;BME280;61978;52.742;16.962;2022-09-06T20:38:39;100795.09;;;13.78;100.00
73679;BME280;61978;52.742;16.962;2022-09-06T20:44:40;100811.09;;;13.60;100.00
73679;BME280;61978;52.742;16.962;2022-09-06T20:47:35;100817.08;;;13.55;100.00
73679;BME280;61978;52.742;16.962;2022-09-06T21:02:38;100870.62;;;13.21;100.00
73679;BME280;61978;52.742;16.962;2022-09-06T21:11:24;100911.95;;;13.28;100.00
73679;BME280;61978;52.742;16.962;2022-09-06T21:20:39;100937.69;;;13.31;100.00
73679;BME280;61978;52.742;16.962;2022-09-06T21:23:36;100941.84;;;13.33;100.00
73679;BME280;61978;52.742;16.962;2022-09-06T21:35:17;100983.77;;;13.29;100.00
73679;BME280;61978;52.742;16.962;2022-09-06T21:41:40;100998.55;;;13.40;100.00
73679;BME280;61978;52.742;16.962;2022-09-06T21:53:25;101019.25;;;13.16;100.00
73679;BME280;61978;52.742;16.962;2022-09-06T22:01:56;101049.59;;;12.97;100.00
73679;BME280;61978;52.742;16.962;2022-09-06T22:16:42;101076.52;;;13.07;100.00